createdAt,value
2019-04-21T00:00:00.142Z,10.49
2019-04-21T00:01:03.930Z,10.55
2019-04-21T00:01:59.661Z,10.46
2019-04-21T00:02:59.631Z,10.48
2019-04-21T00:04:12.420Z,10.55
2019-04-21T00:05:22.613Z,10.53
2019-04-21T00:06:18.715Z,10.51
2019-04-21T00:07:22.482Z,10.51
2019-04-21T00:08:27.541Z,10.55
2019-04-21T00:09:26.085Z,10.51
2019-04-21T00:10:23.525Z,10.49
2019-04-21T00:11:22.120Z,10.43
2019-04-21T00:12:20.239Z,10.53
2019-04-21T00:13:14.784Z,10.45
2019-04-21T00:14:10.184Z,10.53
2019-04-21T00:15:09.802Z,10.49
2019-04-21T00:16:03.397Z,10.43
2019-04-21T00:17:06.063Z,10.43
2019-04-21T00:18:02.446Z,10.43
2019-04-21T00:19:08.428Z,10.43
2019-04-21T00:20:09.084Z,10.39
2019-04-21T00:21:12.266Z,10.41
2019-04-21T00:22:08.637Z,10.43
2019-04-21T00:23:19.948Z,10.36
2019-04-21T00:24:12.692Z,10.45
2019-04-21T00:25:16.329Z,10.33
2019-04-21T00:26:13.054Z,10.36
2019-04-21T00:27:18.692Z,10.45
2019-04-21T00:28:24.116Z,10.30
2019-04-21T00:29:27.588Z,10.30
2019-04-21T00:30:21.763Z,10.39
2019-04-21T00:31:15.315Z,10.31
2019-04-21T00:32:14.848Z,10.34
2019-04-21T00:33:06.871Z,10.41
2019-04-21T00:34:00.392Z,10.39
2019-04-21T00:35:07.724Z,10.34
2019-04-21T00:36:07.507Z,10.28
2019-04-21T00:37:09.151Z,10.36
2019-04-21T00:38:19.592Z,10.31
2019-04-21T00:39:28.675Z,10.24
2019-04-21T00:40:22.764Z,10.23
2019-04-21T00:41:23.571Z,10.28
2019-04-21T00:42:19.962Z,10.27
2019-04-21T00:43:16.910Z,10.28
2019-04-21T00:44:12.595Z,10.24
2019-04-21T00:45:16.805Z,10.18
2019-04-21T00:46:08.575Z,10.25
2019-04-21T00:47:14.035Z,10.17
2019-04-21T00:48:25.868Z,10.12
2019-04-21T00:49:18.243Z,10.20
2019-04-21T00:50:17.964Z,10.10
2019-04-21T00:52:28.925Z,10.13
2019-04-21T00:53:33.521Z,10.12
2019-04-21T00:54:24.618Z,10.09
2019-04-21T00:55:31.036Z,10.09
2019-04-21T00:56:21.311Z,10.12
2019-04-21T00:57:25.258Z,10.07
2019-04-21T00:58:27.091Z,10.05
2019-04-21T00:59:28.621Z,10.13
2019-04-21T01:00:26.075Z,9.94
2019-04-21T01:01:19.792Z,10.00
2019-04-21T01:02:17.478Z,9.99
2019-04-21T01:03:20.695Z,10.00
2019-04-21T01:04:23.530Z,10.02
2019-04-21T01:05:22.449Z,10.00
2019-04-21T01:06:24.432Z,9.92
2019-04-21T01:07:22.203Z,9.95
2019-04-21T01:08:21.445Z,9.92
2019-04-21T01:09:21.090Z,10.00
2019-04-21T01:10:14.882Z,9.92
2019-04-21T01:11:23.886Z,9.91
2019-04-21T01:12:21.791Z,9.87
2019-04-21T01:13:23.339Z,9.85
2019-04-21T01:14:30.241Z,9.88
2019-04-21T01:15:26.121Z,9.91
2019-04-21T01:16:31.582Z,9.85
2019-04-21T01:17:21.848Z,9.80
2019-04-21T01:18:20.992Z,9.82
2019-04-21T01:19:17.276Z,9.69
2019-04-21T01:20:12.962Z,9.77
2019-04-21T01:21:00.287Z,9.77
2019-04-21T01:22:00.297Z,9.73
2019-04-21T01:23:00.368Z,9.72
2019-04-21T01:24:06.528Z,9.72
2019-04-21T01:25:08.969Z,9.63
2019-04-21T01:26:14.664Z,9.70
2019-04-21T01:27:11.284Z,9.66
2019-04-21T01:28:19.911Z,9.59
2019-04-21T01:29:15.700Z,9.59
2019-04-21T01:30:26.238Z,9.58
2019-04-21T01:31:17.145Z,9.62
2019-04-21T01:32:23.683Z,9.52
2019-04-21T01:33:27.777Z,9.52
2019-04-21T01:34:27.510Z,9.48
2019-04-21T01:35:21.042Z,9.51
2019-04-21T01:36:19.344Z,9.47
2019-04-21T01:37:28.519Z,9.47
2019-04-21T01:38:27.339Z,9.51
2019-04-21T01:39:21.311Z,9.44
2019-04-21T01:40:30.729Z,9.44
2019-04-21T01:41:29.283Z,9.33
2019-04-21T01:42:21.033Z,9.34
2019-04-21T01:43:21.834Z,9.30
2019-04-21T01:44:25.649Z,9.37
2019-04-21T01:45:21.283Z,9.34
2019-04-21T01:46:15.358Z,9.30
2019-04-21T01:47:17.386Z,9.37
2019-04-21T01:48:15.989Z,9.30
2019-04-21T01:49:11.852Z,9.29
2019-04-21T01:50:14.314Z,9.26
2019-04-21T01:51:13.273Z,9.26
2019-04-21T01:52:24.803Z,9.26
2019-04-21T01:53:23.994Z,9.24
2019-04-21T01:54:22.016Z,9.15
2019-04-21T01:55:25.404Z,9.19
2019-04-21T01:57:17.814Z,9.16
2019-04-21T01:58:15.438Z,9.15
2019-04-21T01:59:07.362Z,9.16
2019-04-21T02:00:12.256Z,9.12
2019-04-21T02:01:15.605Z,9.15
2019-04-21T02:02:26.680Z,9.15
2019-04-21T02:03:41.662Z,9.15
2019-04-21T02:04:24.487Z,9.11
2019-04-21T02:05:26.925Z,9.13
2019-04-21T02:06:21.243Z,9.15
2019-04-21T02:07:20.697Z,9.13
2019-04-21T02:08:17.704Z,9.09
2019-04-21T02:09:18.931Z,9.16
2019-04-21T02:10:26.704Z,9.08
2019-04-21T02:11:26.140Z,9.08
2019-04-21T02:12:29.989Z,9.03
2019-04-21T02:13:18.827Z,9.12
2019-04-21T02:14:22.890Z,9.05
2019-04-21T02:15:26.819Z,9.11
2019-04-21T02:16:23.157Z,9.09
2019-04-21T02:17:23.515Z,9.03
2019-04-21T02:18:24.783Z,9.00
2019-04-21T02:19:19.918Z,9.00
2019-04-21T02:20:16.572Z,8.96
2019-04-21T02:21:20.382Z,8.92
2019-04-21T02:22:28.712Z,8.96
2019-04-21T02:24:31.357Z,8.96
2019-04-21T02:25:29.795Z,8.86
2019-04-21T02:26:23.195Z,8.93
2019-04-21T02:27:23.701Z,8.95
2019-04-21T02:28:32.256Z,8.84
2019-04-21T02:29:29.156Z,8.92
2019-04-21T02:30:36.813Z,8.92
2019-04-21T02:32:35.653Z,8.82
2019-04-21T02:33:38.722Z,8.84
2019-04-21T02:34:33.592Z,8.84
2019-04-21T02:35:42.774Z,8.81
2019-04-21T02:36:58.602Z,8.79
2019-04-21T02:38:36.265Z,8.78
2019-04-21T02:39:27.992Z,8.79
2019-04-21T02:41:41.475Z,8.78
2019-04-21T02:42:43.289Z,8.81
2019-04-21T02:43:25.108Z,8.79
2019-04-21T02:44:37.643Z,8.75
2019-04-21T02:45:30.226Z,8.69
2019-04-21T02:46:42.507Z,8.78
2019-04-21T02:48:39.072Z,8.74
2019-04-21T02:49:53.582Z,8.66
2019-04-21T02:50:31.551Z,8.69
2019-04-21T02:51:33.426Z,8.63
2019-04-21T02:52:37.383Z,8.69
2019-04-21T02:53:46.062Z,8.75
2019-04-21T02:55:30.348Z,8.72
2019-04-21T02:56:37.879Z,8.68
2019-04-21T02:57:35.173Z,8.57
2019-04-21T02:58:37.745Z,8.59
2019-04-21T02:59:33.685Z,8.56
2019-04-21T03:00:36.560Z,8.59
2019-04-21T03:02:40.748Z,8.57
2019-04-21T03:04:36.230Z,8.45
2019-04-21T03:05:42.891Z,8.52
2019-04-21T03:06:29.149Z,8.44
2019-04-21T03:09:31.827Z,8.54
2019-04-21T03:10:37.996Z,8.50
2019-04-21T03:11:25.950Z,8.53
2019-04-21T03:13:41.139Z,8.44
2019-04-21T03:14:46.479Z,8.41
2019-04-21T03:16:25.776Z,8.34
2019-04-21T03:17:44.073Z,8.39
2019-04-21T03:20:33.601Z,8.31
2019-04-21T03:21:32.773Z,8.35
2019-04-21T03:23:39.519Z,8.26
2019-04-21T03:25:01.341Z,8.31
2019-04-21T03:25:43.232Z,8.31
2019-04-21T03:27:40.636Z,8.26
2019-04-21T03:32:06.435Z,8.20
2019-04-21T03:35:07.635Z,8.13
2019-04-21T03:36:52.805Z,8.14
2019-04-21T03:37:42.520Z,8.08
2019-04-21T03:38:41.019Z,8.06
2019-04-21T03:39:37.169Z,8.03
2019-04-21T03:40:44.374Z,7.99
2019-04-21T03:41:44.077Z,8.01
2019-04-21T03:42:42.475Z,8.02
2019-04-21T03:43:34.881Z,7.98
2019-04-21T03:44:48.277Z,7.88
2019-04-21T03:45:42.698Z,7.93
2019-04-21T03:46:32.535Z,7.93
2019-04-21T03:47:32.401Z,7.93
2019-04-21T03:48:36.191Z,7.84
2019-04-21T03:49:43.693Z,7.85
2019-04-21T03:53:32.382Z,7.85
2019-04-21T03:54:37.431Z,7.87
2019-04-21T03:56:53.528Z,7.72
2019-04-21T03:57:46.290Z,7.83
2019-04-21T03:58:47.757Z,7.75
2019-04-21T03:59:24.558Z,7.75
2019-04-21T04:01:32.748Z,7.83
2019-04-21T04:02:52.378Z,7.77
2019-04-21T04:05:49.329Z,7.74
2019-04-21T04:06:34.391Z,7.67
2019-04-21T04:07:44.256Z,7.67
2019-04-21T04:09:42.785Z,7.66
2019-04-21T04:10:31.386Z,7.66
2019-04-21T04:11:37.662Z,7.62
2019-04-21T04:12:35.023Z,7.70
2019-04-21T04:14:42.470Z,7.62
2019-04-21T04:15:39.047Z,7.59
2019-04-21T04:19:40.116Z,7.56
2019-04-21T04:20:39.815Z,7.62
2019-04-21T04:21:41.595Z,7.62
2019-04-21T04:22:41.631Z,7.50
2019-04-21T04:23:42.480Z,7.62
2019-04-21T04:26:39.466Z,7.59
2019-04-21T04:28:50.077Z,7.48
2019-04-21T04:29:31.871Z,7.62
2019-04-21T04:34:40.772Z,7.61
2019-04-21T04:35:42.409Z,7.59
2019-04-21T04:36:47.781Z,7.56
2019-04-21T04:37:36.800Z,7.44
2019-04-21T04:38:39.417Z,7.62
2019-04-21T04:39:43.069Z,7.67
2019-04-21T04:40:31.488Z,7.56
2019-04-21T04:42:00.280Z,7.66
2019-04-21T04:43:37.100Z,7.55
2019-04-21T04:46:06.793Z,7.69
2019-04-21T04:46:44.278Z,7.56
2019-04-21T04:47:37.088Z,7.59
2019-04-21T04:48:35.223Z,7.62
2019-04-21T04:49:45.061Z,7.59
2019-04-21T04:50:45.306Z,7.55
2019-04-21T04:51:47.456Z,7.61
2019-04-21T04:52:40.146Z,7.66
2019-04-21T04:53:31.199Z,7.67
2019-04-21T04:55:33.943Z,7.72
2019-04-21T04:56:47.608Z,7.59
2019-04-21T04:59:43.410Z,7.67
2019-04-21T05:03:43.856Z,7.74
2019-04-21T05:05:38.141Z,7.78
2019-04-21T05:06:42.504Z,7.88
2019-04-21T05:08:54.372Z,7.83
2019-04-21T05:09:33.651Z,7.85
2019-04-21T05:10:52.896Z,7.93
2019-04-21T05:12:29.235Z,7.95
2019-04-21T05:13:37.460Z,7.98
2019-04-21T05:14:30.397Z,8.05
2019-04-21T05:15:23.705Z,7.99
2019-04-21T05:16:46.937Z,8.08
2019-04-21T05:17:37.180Z,8.09
2019-04-21T05:18:38.660Z,8.11
2019-04-21T05:19:30.593Z,8.23
2019-04-21T05:20:24.319Z,8.16
2019-04-21T05:21:34.222Z,8.23
2019-04-21T05:23:25.719Z,8.21
2019-04-21T05:24:23.055Z,8.27
2019-04-21T05:25:20.303Z,8.26
2019-04-21T05:26:18.922Z,8.24
2019-04-21T05:27:23.408Z,8.39
2019-04-21T05:28:15.209Z,8.42
2019-04-21T05:29:15.993Z,8.46
2019-04-21T05:30:34.058Z,8.52
2019-04-21T05:31:29.209Z,8.50
2019-04-21T05:32:28.296Z,8.54
2019-04-21T05:33:27.655Z,8.56
2019-04-21T05:34:26.963Z,8.57
2019-04-21T05:35:29.459Z,8.57
2019-04-21T05:36:28.535Z,8.64
2019-04-21T05:37:27.243Z,8.61
2019-04-21T05:38:22.112Z,8.72
2019-04-21T05:39:21.655Z,8.68
2019-04-21T05:40:20.008Z,8.74
2019-04-21T05:41:17.561Z,8.79
2019-04-21T05:42:22.649Z,8.78
2019-04-21T05:43:28.392Z,8.84
2019-04-21T05:44:39.985Z,8.77
2019-04-21T05:45:26.990Z,8.89
2019-04-21T05:48:31.627Z,9.02
2019-04-21T05:49:22.006Z,9.09
2019-04-21T05:50:23.931Z,9.15
2019-04-21T05:51:25.857Z,9.12
2019-04-21T05:52:24.068Z,9.15
2019-04-21T05:53:29.624Z,9.26
2019-04-21T05:54:31.369Z,9.31
2019-04-21T05:55:34.228Z,9.29
2019-04-21T05:56:32.108Z,9.39
2019-04-21T05:57:23.591Z,9.49
2019-04-21T05:58:28.453Z,9.47
2019-04-21T05:59:29.611Z,9.52
2019-04-21T06:00:50.779Z,9.55
2019-04-21T06:01:33.348Z,9.64
2019-04-21T06:02:47.916Z,9.74
2019-04-21T06:03:30.692Z,9.81
2019-04-21T06:04:41.574Z,9.92
2019-04-21T06:05:37.369Z,9.97
2019-04-21T06:06:40.842Z,9.97
2019-04-21T06:07:29.048Z,10.13
2019-04-21T06:08:25.500Z,10.15
2019-04-21T06:09:32.535Z,10.24
2019-04-21T06:10:27.364Z,10.38
2019-04-21T06:11:30.920Z,10.43
2019-04-21T06:12:29.720Z,10.48
2019-04-21T06:13:35.131Z,10.51
2019-04-21T06:14:29.352Z,10.61
2019-04-21T06:15:34.930Z,10.64
2019-04-21T06:16:34.239Z,10.79
2019-04-21T06:17:35.164Z,10.94
2019-04-21T06:18:38.654Z,10.92
2019-04-21T06:19:30.667Z,11.00
2019-04-21T06:20:27.109Z,11.00
2019-04-21T06:21:27.524Z,11.19
2019-04-21T06:22:23.878Z,11.35
2019-04-21T06:23:30.261Z,11.40
2019-04-21T06:24:31.386Z,11.73
2019-04-21T06:26:57.016Z,12.21
2019-04-21T06:27:32.767Z,12.39
2019-04-21T06:28:35.953Z,12.70
2019-04-21T06:29:30.029Z,12.83
2019-04-21T06:30:33.388Z,13.09
2019-04-21T06:31:49.324Z,13.26
2019-04-21T06:32:38.515Z,13.57
2019-04-21T06:33:44.684Z,13.82
2019-04-21T06:34:37.504Z,13.95
2019-04-21T06:35:43.148Z,14.18
2019-04-21T06:36:36.198Z,14.52
2019-04-21T06:38:36.018Z,14.90
2019-04-21T06:39:33.487Z,15.02
2019-04-21T06:40:48.365Z,15.26
2019-04-21T06:41:32.662Z,15.37
2019-04-21T06:42:25.488Z,15.63
2019-04-21T06:43:33.363Z,15.84
2019-04-21T06:44:49.103Z,15.90
2019-04-21T06:45:51.189Z,16.06
2019-04-21T06:46:35.193Z,16.31
2019-04-21T06:47:39.472Z,16.46
2019-04-21T06:48:33.006Z,16.61
2019-04-21T06:49:25.017Z,16.80
2019-04-21T06:50:37.710Z,16.99
2019-04-21T06:53:37.660Z,17.39
2019-04-21T06:54:29.131Z,17.56
2019-04-21T06:55:26.421Z,17.60
2019-04-21T06:56:37.932Z,17.86
2019-04-21T06:57:28.975Z,18.00
2019-04-21T06:58:25.037Z,18.27
2019-04-21T06:59:28.875Z,18.33
2019-04-21T07:00:27.342Z,18.49
2019-04-21T07:01:32.787Z,18.61
2019-04-21T07:03:34.665Z,19.00
2019-04-21T07:04:31.794Z,18.92
2019-04-21T07:05:35.860Z,19.12
2019-04-21T07:06:32.402Z,19.23
2019-04-21T07:07:28.171Z,19.41
2019-04-21T07:09:47.945Z,19.45
2019-04-21T07:10:26.321Z,19.60
2019-04-21T07:11:25.283Z,19.63
2019-04-21T07:12:28.688Z,19.64
2019-04-21T07:13:26.378Z,19.64
2019-04-21T07:15:30.442Z,19.79
2019-04-21T07:16:31.995Z,19.90
2019-04-21T07:17:27.913Z,19.89
2019-04-21T07:18:36.487Z,19.97
2019-04-21T07:20:28.068Z,20.14
2019-04-21T07:21:29.771Z,20.22
2019-04-21T07:22:32.417Z,20.33
2019-04-21T07:23:31.959Z,20.39
2019-04-21T07:24:31.457Z,20.44
2019-04-21T07:25:32.775Z,20.58
2019-04-21T07:26:29.710Z,20.55
2019-04-21T07:27:31.948Z,20.55
2019-04-21T07:28:31.550Z,20.68
2019-04-21T07:29:38.196Z,20.71
2019-04-21T07:30:29.410Z,20.83
2019-04-21T07:31:34.788Z,20.92
2019-04-21T07:32:29.801Z,20.93
2019-04-21T07:33:49.286Z,20.93
2019-04-21T07:34:36.254Z,20.89
2019-04-21T07:35:25.023Z,20.93
2019-04-21T07:36:43.953Z,20.90
2019-04-21T07:37:30.541Z,21.04
2019-04-21T07:38:27.442Z,21.04
2019-04-21T07:39:29.968Z,21.17
2019-04-21T07:40:24.695Z,21.14
2019-04-21T07:41:22.796Z,21.25
2019-04-21T07:42:24.159Z,21.32
2019-04-21T07:43:25.860Z,21.29
2019-04-21T07:44:24.182Z,21.29
2019-04-21T07:45:22.687Z,21.32
2019-04-21T07:46:23.691Z,21.47
2019-04-21T07:47:27.202Z,21.43
2019-04-21T07:48:29.215Z,21.50
2019-04-21T07:49:25.274Z,21.51
2019-04-21T07:50:28.653Z,21.38
2019-04-21T07:51:31.647Z,21.62
2019-04-21T07:52:30.950Z,21.48
2019-04-21T07:53:36.732Z,21.65
2019-04-21T07:54:37.360Z,21.69
2019-04-21T07:56:15.975Z,21.74
2019-04-21T07:57:26.046Z,21.63
2019-04-21T07:58:26.597Z,21.63
2019-04-21T07:59:37.118Z,21.62
2019-04-21T08:00:36.752Z,21.58
2019-04-21T08:01:30.706Z,21.47
2019-04-21T08:02:31.712Z,21.48
2019-04-21T08:03:29.736Z,21.44
2019-04-21T08:04:42.355Z,21.23
2019-04-21T08:05:25.558Z,21.14
2019-04-21T08:06:36.599Z,21.07
2019-04-21T08:07:37.594Z,20.77
2019-04-21T08:08:26.322Z,20.58
2019-04-21T08:09:29.798Z,20.39
2019-04-21T08:10:28.594Z,20.22
2019-04-21T08:11:28.301Z,20.17
2019-04-21T08:12:24.640Z,19.94
2019-04-21T08:13:34.264Z,19.77
2019-04-21T08:14:28.349Z,19.62
2019-04-21T08:15:34.230Z,19.60
2019-04-21T08:16:30.466Z,19.44
2019-04-21T08:17:31.916Z,19.30
2019-04-21T08:18:26.939Z,19.22
2019-04-21T08:19:25.106Z,19.09
2019-04-21T08:20:25.909Z,18.96
2019-04-21T08:21:28.045Z,18.91
2019-04-21T08:22:32.194Z,18.74
2019-04-21T08:23:43.173Z,18.67
2019-04-21T08:25:27.663Z,18.48
2019-04-21T08:26:31.002Z,18.45
2019-04-21T08:27:37.320Z,18.30
2019-04-21T08:28:35.485Z,18.28
2019-04-21T08:29:32.868Z,18.19
2019-04-21T08:30:32.229Z,18.16
2019-04-21T08:31:34.088Z,18.19
2019-04-21T08:32:36.216Z,18.02
2019-04-21T08:33:38.271Z,17.98
2019-04-21T08:34:30.798Z,17.88
2019-04-21T08:35:56.896Z,17.84
2019-04-21T08:36:32.548Z,17.87
2019-04-21T08:37:24.486Z,17.82
2019-04-21T08:38:30.287Z,17.80
2019-04-21T08:39:33.253Z,17.73
2019-04-21T08:40:31.529Z,17.82
2019-04-21T08:41:23.658Z,17.79
2019-04-21T08:42:35.086Z,17.80
2019-04-21T08:43:35.726Z,17.79
2019-04-21T08:44:35.237Z,17.80
2019-04-21T08:45:32.097Z,17.79
2019-04-21T08:46:31.760Z,17.82
2019-04-21T08:47:25.596Z,17.86
2019-04-21T08:48:28.536Z,17.76
2019-04-21T08:49:26.448Z,17.72
2019-04-21T08:50:28.031Z,17.75
2019-04-21T08:52:36.872Z,17.66
2019-04-21T08:53:34.063Z,17.76
2019-04-21T08:54:27.480Z,17.71
2019-04-21T08:55:32.089Z,17.76
2019-04-21T08:56:31.382Z,17.72
2019-04-21T08:57:35.612Z,17.69
2019-04-21T08:59:33.967Z,17.78
2019-04-21T09:00:33.468Z,17.80
2019-04-21T09:01:31.733Z,17.80
2019-04-21T09:02:29.719Z,17.86
2019-04-21T09:03:30.785Z,17.80
2019-04-21T09:04:28.761Z,17.78
2019-04-21T09:05:25.848Z,17.84
2019-04-21T09:07:36.217Z,17.84
2019-04-21T09:08:33.084Z,17.90
2019-04-21T09:09:32.164Z,17.90
2019-04-21T09:10:31.402Z,17.86
2019-04-21T09:11:22.571Z,17.91
2019-04-21T09:12:33.134Z,17.95
2019-04-21T09:13:24.754Z,17.94
2019-04-21T09:14:27.313Z,17.97
2019-04-21T09:15:27.689Z,18.08
2019-04-21T09:16:26.445Z,17.98
2019-04-21T09:17:22.158Z,18.02
2019-04-21T09:18:23.531Z,17.97
2019-04-21T09:19:38.751Z,17.97
2019-04-21T09:20:33.393Z,18.12
2019-04-21T09:21:31.328Z,18.11
2019-04-21T09:22:29.955Z,18.13
2019-04-21T09:23:25.630Z,18.11
2019-04-21T09:24:26.771Z,18.18
2019-04-21T09:25:33.575Z,18.30
2019-04-21T09:26:29.347Z,18.31
2019-04-21T09:27:27.668Z,18.30
2019-04-21T09:28:21.421Z,18.26
2019-04-21T09:29:18.094Z,18.24
2019-04-21T09:30:10.766Z,18.31
2019-04-21T09:31:10.727Z,18.39
2019-04-21T09:32:15.988Z,18.39
2019-04-21T09:33:09.706Z,18.39
2019-04-21T09:34:14.345Z,18.46
2019-04-21T09:35:12.447Z,18.45
2019-04-21T09:36:14.628Z,18.48
2019-04-21T09:37:24.610Z,18.57
2019-04-21T09:38:19.285Z,18.63
2019-04-21T09:39:15.064Z,18.64
2019-04-21T09:40:12.197Z,18.64
2019-04-21T09:41:15.928Z,18.70
2019-04-21T09:42:11.326Z,18.76
2019-04-21T09:43:13.317Z,18.82
2019-04-21T09:44:17.239Z,18.78
2019-04-21T09:45:11.769Z,18.89
2019-04-21T09:46:09.991Z,18.98
2019-04-21T09:47:11.045Z,18.98
2019-04-21T09:48:13.896Z,19.09
2019-04-21T09:49:13.627Z,19.09
2019-04-21T09:50:11.510Z,19.16
2019-04-21T09:51:10.944Z,19.19
2019-04-21T09:52:16.971Z,19.17
2019-04-21T09:53:16.768Z,19.26
2019-04-21T09:54:15.974Z,19.24
2019-04-21T09:55:15.983Z,19.32
2019-04-21T09:56:15.872Z,19.34
2019-04-21T09:57:21.945Z,19.39
2019-04-21T09:58:21.876Z,19.34
2019-04-21T09:59:19.303Z,19.48
2019-04-21T10:00:18.245Z,19.45
2019-04-21T10:01:18.550Z,19.45
2019-04-21T10:02:16.133Z,19.57
2019-04-21T10:03:14.014Z,19.60
2019-04-21T10:04:10.428Z,19.63
2019-04-21T10:05:10.417Z,19.72
2019-04-21T10:06:11.257Z,19.77
2019-04-21T10:07:23.346Z,19.78
2019-04-21T10:08:10.571Z,19.82
2019-04-21T10:09:14.396Z,19.90
2019-04-21T10:10:10.613Z,20.04
2019-04-21T10:11:11.671Z,20.04
2019-04-21T10:12:11.823Z,20.18
2019-04-21T10:13:10.701Z,20.15
2019-04-21T10:14:11.640Z,20.26
2019-04-21T10:15:10.800Z,20.21
2019-04-21T10:16:10.838Z,20.30
2019-04-21T10:17:10.966Z,20.55
2019-04-21T10:18:10.854Z,20.52
2019-04-21T10:19:11.175Z,20.77
2019-04-21T10:20:11.833Z,20.93
2019-04-21T10:21:10.796Z,21.03
2019-04-21T10:22:10.823Z,21.17
2019-04-21T10:23:11.386Z,21.22
2019-04-21T10:24:10.878Z,21.45
2019-04-21T10:25:10.915Z,21.62
2019-04-21T10:26:10.949Z,21.81
2019-04-21T10:27:12.961Z,22.04
2019-04-21T10:28:11.044Z,22.10
2019-04-21T10:29:19.357Z,22.19
2019-04-21T10:30:11.960Z,22.43
2019-04-21T10:31:11.109Z,22.63
2019-04-21T10:32:11.325Z,22.56
2019-04-21T10:33:12.342Z,22.70
2019-04-21T10:34:11.512Z,22.88
2019-04-21T10:35:11.184Z,22.93
2019-04-21T10:36:11.214Z,23.21
2019-04-21T10:37:11.307Z,23.40
2019-04-21T10:38:19.813Z,23.48
2019-04-21T10:39:11.502Z,23.76
2019-04-21T10:40:11.735Z,23.89
2019-04-21T10:41:11.824Z,24.07
2019-04-21T10:42:11.404Z,24.22
2019-04-21T10:43:13.716Z,24.50
2019-04-21T10:44:11.577Z,24.71
2019-04-21T10:45:12.651Z,24.79
2019-04-21T10:46:12.763Z,25.09
2019-04-21T10:47:12.796Z,25.40
2019-04-21T10:48:12.749Z,25.59
2019-04-21T10:49:12.654Z,25.85
2019-04-21T10:50:12.904Z,26.27
2019-04-21T10:51:12.924Z,26.46
2019-04-21T10:52:12.887Z,26.83
2019-04-21T10:53:13.248Z,27.08
2019-04-21T10:54:11.806Z,27.38
2019-04-21T10:55:35.518Z,27.52
2019-04-21T10:56:20.164Z,27.73
2019-04-21T10:57:12.547Z,27.91
2019-04-21T10:58:11.939Z,28.16
2019-04-21T10:59:12.134Z,28.52
2019-04-21T11:00:12.627Z,28.70
2019-04-21T11:01:12.718Z,28.75
2019-04-21T11:02:12.783Z,29.24
2019-04-21T11:03:13.014Z,29.52
2019-04-21T11:04:19.543Z,29.47
2019-04-21T11:05:12.509Z,29.64
2019-04-21T11:06:12.677Z,29.76
2019-04-21T11:07:17.478Z,29.99
2019-04-21T11:08:22.596Z,29.92
2019-04-21T11:09:13.727Z,30.03
2019-04-21T11:10:12.380Z,30.26
2019-04-21T11:11:12.418Z,30.43
2019-04-21T11:12:13.471Z,30.52
2019-04-21T11:13:12.557Z,30.62
2019-04-21T11:14:13.441Z,30.71
2019-04-21T11:15:12.569Z,30.89
2019-04-21T11:16:13.099Z,30.91
2019-04-21T11:17:12.645Z,31.14
2019-04-21T11:18:12.683Z,31.41
2019-04-21T11:19:13.649Z,31.51
2019-04-21T11:20:12.931Z,31.64
2019-04-21T11:21:13.190Z,31.82
2019-04-21T11:22:12.834Z,31.93
2019-04-21T11:23:14.169Z,31.98
2019-04-21T11:24:14.177Z,32.09
2019-04-21T11:25:13.003Z,32.17
2019-04-21T11:26:13.904Z,32.29
2019-04-21T11:27:13.029Z,32.24
2019-04-21T11:28:14.314Z,32.17
2019-04-21T11:29:13.106Z,32.17
2019-04-21T11:30:13.749Z,32.17
2019-04-21T11:31:13.356Z,32.29
2019-04-21T11:32:13.221Z,32.27
2019-04-21T11:33:13.260Z,32.16
2019-04-21T11:34:13.514Z,32.22
2019-04-21T11:35:13.340Z,32.17
2019-04-21T11:36:13.478Z,32.15
2019-04-21T11:37:14.346Z,32.31
2019-04-21T11:38:18.125Z,32.41
2019-04-21T11:39:26.892Z,32.51
2019-04-21T11:40:17.637Z,32.46
2019-04-21T11:41:13.938Z,32.66
2019-04-21T11:42:13.610Z,32.72
2019-04-21T11:43:13.742Z,32.88
2019-04-21T11:44:14.090Z,33.12
2019-04-21T11:45:14.673Z,33.23
2019-04-21T11:46:13.764Z,33.39
2019-04-21T11:47:14.336Z,33.35
2019-04-21T11:48:14.400Z,33.36
2019-04-21T11:49:13.885Z,33.55
2019-04-21T11:50:14.891Z,33.57
2019-04-21T11:51:15.143Z,33.65
2019-04-21T11:52:14.001Z,33.54
2019-04-21T11:53:14.808Z,33.60
2019-04-21T11:54:14.957Z,33.72
2019-04-21T11:55:14.346Z,33.72
2019-04-21T11:56:14.678Z,33.94
2019-04-21T11:57:20.566Z,33.97
2019-04-21T11:58:14.241Z,33.95
2019-04-21T11:59:15.398Z,34.00
2019-04-21T12:00:15.591Z,34.19
2019-04-21T12:01:15.751Z,34.19
2019-04-21T12:02:15.210Z,34.21
2019-04-21T12:03:15.702Z,34.02
2019-04-21T12:04:15.943Z,33.94
2019-04-21T12:05:15.147Z,33.79
2019-04-21T12:06:15.462Z,33.75
2019-04-21T12:07:15.472Z,33.61
2019-04-21T12:08:23.064Z,33.40
2019-04-21T12:09:14.853Z,33.61
2019-04-21T12:10:15.486Z,33.58
2019-04-21T12:11:15.924Z,33.53
2019-04-21T12:12:15.006Z,33.63
2019-04-21T12:13:16.133Z,33.55
2019-04-21T12:14:16.152Z,33.51
2019-04-21T12:15:14.911Z,33.51
2019-04-21T12:16:15.116Z,33.53
2019-04-21T12:17:16.287Z,33.75
2019-04-21T12:18:15.477Z,33.82
2019-04-21T12:19:15.063Z,33.81
2019-04-21T12:20:15.102Z,33.95
2019-04-21T12:21:15.708Z,34.07
2019-04-21T12:22:21.347Z,34.11
2019-04-21T12:23:16.236Z,34.13
2019-04-21T12:24:15.336Z,34.02
2019-04-21T12:25:15.574Z,33.94
2019-04-21T12:26:15.932Z,33.85
2019-04-21T12:27:16.140Z,33.87
2019-04-21T12:28:15.985Z,33.81
2019-04-21T12:29:16.572Z,33.70
2019-04-21T12:30:15.667Z,33.61
2019-04-21T12:31:15.750Z,33.61
2019-04-21T12:32:15.945Z,33.77
2019-04-21T12:33:16.182Z,33.77
2019-04-21T12:34:16.165Z,33.73
2019-04-21T12:35:15.775Z,33.82
2019-04-21T12:36:15.841Z,33.57
2019-04-21T12:37:16.975Z,33.40
2019-04-21T12:38:16.492Z,33.39
2019-04-21T12:39:16.883Z,33.39
2019-04-21T12:40:16.717Z,33.40
2019-04-21T12:41:15.918Z,32.98
2019-04-21T12:42:16.585Z,33.12
2019-04-21T12:43:16.788Z,33.12
2019-04-21T12:44:16.066Z,33.10
2019-04-21T12:45:17.275Z,33.10
2019-04-21T12:46:16.129Z,32.86
2019-04-21T12:47:16.229Z,32.88
2019-04-21T12:48:16.186Z,32.68
2019-04-21T12:49:16.221Z,32.59
2019-04-21T12:50:17.014Z,32.19
2019-04-21T12:51:17.547Z,32.02
2019-04-21T12:52:17.626Z,31.73
2019-04-21T12:53:17.861Z,31.41
2019-04-21T12:54:17.457Z,31.13
2019-04-21T12:55:17.556Z,30.43
2019-04-21T12:56:17.666Z,30.11
2019-04-21T12:57:17.150Z,29.81
2019-04-21T12:58:17.277Z,29.62
2019-04-21T12:59:16.934Z,29.03
2019-04-21T13:00:16.627Z,28.93
2019-04-21T13:01:16.748Z,28.70
2019-04-21T13:02:17.791Z,28.41
2019-04-21T13:03:17.461Z,28.27
2019-04-21T13:04:17.698Z,28.08
2019-04-21T13:05:17.715Z,27.86
2019-04-21T13:06:16.833Z,27.67
2019-04-21T13:07:17.406Z,27.55
2019-04-21T13:08:17.669Z,27.25
2019-04-21T13:09:20.194Z,27.08
2019-04-21T13:10:18.019Z,26.83
2019-04-21T13:11:17.129Z,26.68
2019-04-21T13:12:17.276Z,26.52
2019-04-21T13:13:17.684Z,26.29
2019-04-21T13:14:17.825Z,26.07
2019-04-21T13:15:17.851Z,25.98
2019-04-21T13:16:17.146Z,25.80
2019-04-21T13:17:17.292Z,25.67
2019-04-21T13:18:18.386Z,25.59
2019-04-21T13:19:17.558Z,25.41
2019-04-21T13:20:17.259Z,25.24
2019-04-21T13:21:18.117Z,25.16
2019-04-21T13:22:18.372Z,24.93
2019-04-21T13:23:18.822Z,24.78
2019-04-21T13:24:17.830Z,24.61
2019-04-21T13:25:18.097Z,24.65
2019-04-21T13:26:27.572Z,24.48
2019-04-21T13:27:17.780Z,24.36
2019-04-21T13:28:18.630Z,24.18
2019-04-21T13:29:18.344Z,24.10
2019-04-21T13:30:18.086Z,23.95
2019-04-21T13:31:18.170Z,23.89
2019-04-21T13:32:18.468Z,23.67
2019-04-21T13:33:18.808Z,23.63
2019-04-21T13:34:18.017Z,23.52
2019-04-21T13:35:19.031Z,23.44
2019-04-21T13:36:18.134Z,23.40
2019-04-21T13:37:17.729Z,23.32
2019-04-21T13:38:26.918Z,23.17
2019-04-21T13:39:44.673Z,23.18
2019-04-21T13:40:34.213Z,23.13
2019-04-21T13:41:31.423Z,22.98
2019-04-21T13:42:28.175Z,22.88
2019-04-21T13:43:18.900Z,22.88
2019-04-21T13:44:19.510Z,22.78
2019-04-21T13:45:18.367Z,22.77
2019-04-21T13:46:17.993Z,22.70
2019-04-21T13:47:18.626Z,22.73
2019-04-21T13:48:18.892Z,22.58
2019-04-21T13:49:19.107Z,22.62
2019-04-21T13:50:19.055Z,22.65
2019-04-21T13:51:19.344Z,22.59
2019-04-21T13:52:18.594Z,22.56
2019-04-21T13:53:18.605Z,22.55
2019-04-21T13:54:18.182Z,22.44
2019-04-21T13:55:19.268Z,22.47
2019-04-21T13:56:18.464Z,22.41
2019-04-21T13:57:18.783Z,22.38
2019-04-21T13:58:18.270Z,22.34
2019-04-21T13:59:18.382Z,22.33
2019-04-21T14:00:19.331Z,22.33
2019-04-21T14:01:18.344Z,22.34
2019-04-21T14:02:18.522Z,22.31
2019-04-21T14:03:21.024Z,22.22
2019-04-21T14:04:19.716Z,22.33
2019-04-21T14:05:18.447Z,22.25
2019-04-21T14:06:18.545Z,22.30
2019-04-21T14:07:18.502Z,22.16
2019-04-21T14:08:18.941Z,22.31
2019-04-21T14:09:19.835Z,22.25
2019-04-21T14:10:19.751Z,22.23